Time;durP1;ratioP1;P1;durP2;ratioP2;P2;SDS_P1;SDS_P2;PMS_P1;PMS_P2;Temp;Humidity;BMP_temperature;BMP_pressure;BME280_temperature;BME280_humidity;BME280_pressure;Samples;Min_cycle;Max_cycle;Signal;HPM_P1;HPM_P2
2022/08/09 00:01:47;;;;;;;5.72;4.05;;;12.60;99.90;;;;;;5057611;28;20470;-65
2022/08/09 00:04:22;;;;;;;7.20;4.28;;;12.70;99.90;;;;;;5075518;28;20027;-66
2022/08/09 00:06:48;;;;;;;5.85;4.30;;;12.60;99.90;;;;;;5075668;28;20060;-66
2022/08/09 00:09:15;;;;;;;4.90;3.97;;;12.60;99.90;;;;;;5075158;28;20098;-66
2022/08/09 00:11:42;;;;;;;5.38;4.68;;;12.60;99.90;;;;;;5075331;28;20067;-65
2022/08/09 00:14:08;;;;;;;4.57;4.18;;;12.60;99.90;;;;;;5075371;28;20028;-65
2022/08/09 00:16:34;;;;;;;7.65;5.32;;;12.50;99.90;;;;;;5075348;28;20343;-65
2022/08/09 00:19:00;;;;;;;5.07;4.18;;;12.50;99.90;;;;;;5056972;28;20040;-65
2022/08/09 00:21:26;;;;;;;7.50;4.55;;;12.50;99.90;;;;;;5075142;28;20032;-66
2022/08/09 00:23:51;;;;;;;6.10;4.68;;;12.50;99.90;;;;;;5057471;28;20025;-65
2022/08/09 00:26:17;;;;;;;5.47;4.95;;;12.50;99.90;;;;;;5074856;28;20024;-65
2022/08/09 00:28:42;;;;;;;7.97;4.25;;;12.50;99.90;;;;;;5075337;28;20078;-66
2022/08/09 00:31:08;;;;;;;6.63;4.75;;;12.50;99.90;;;;;;5075321;28;20070;-65
2022/08/09 00:33:38;;;;;;;6.60;4.32;;;12.50;99.90;;;;;;5075029;28;20029;-65
2022/08/09 00:36:04;;;;;;;4.50;3.67;;;12.40;99.90;;;;;;5057470;28;20072;-65
2022/08/09 00:38:29;;;;;;;4.57;4.18;;;12.40;99.90;;;;;;5074551;28;20041;-66
2022/08/09 00:40:55;;;;;;;10.13;4.70;;;12.30;99.90;;;;;;5075038;28;20035;-65
2022/08/09 00:43:22;;;;;;;4.80;4.28;;;12.30;99.90;;;;;;5074804;28;20052;-65
2022/08/09 00:45:47;;;;;;;8.45;4.68;;;12.30;99.90;;;;;;5074454;28;20031;-65
2022/08/09 00:48:13;;;;;;;5.25;4.80;;;12.40;99.90;;;;;;5074473;28;20028;-66
2022/08/09 00:50:39;;;;;;;4.95;4.45;;;12.40;99.90;;;;;;5074358;28;20370;-65
2022/08/09 00:53:05;;;;;;;4.55;4.25;;;12.30;99.90;;;;;;5074578;28;20515;-65
2022/08/09 00:55:31;;;;;;;9.30;4.63;;;12.40;99.90;;;;;;5074742;28;20023;-65
2022/08/09 00:57:57;;;;;;;5.43;4.53;;;12.40;99.90;;;;;;5074429;28;20028;-65
2022/08/09 01:00:23;;;;;;;5.07;4.57;;;12.40;99.90;;;;;;5056609;28;20032;-66
2022/08/09 01:02:57;;;;;;;6.28;4.80;;;12.40;99.90;;;;;;5074164;28;20440;-65
2022/08/09 01:06:00;;;;;;;5.07;4.68;;;12.40;99.90;;;;;;5056418;28;20028;-65
2022/08/09 01:08:50;;;;;;;5.68;4.82;;;12.40;99.90;;;;;;5074413;28;20039;-65
2022/08/09 01:12:06;;;;;;;6.38;5.18;;;12.40;99.90;;;;;;5057804;28;20070;-65
2022/08/09 01:14:39;;;;;;;7.28;4.85;;;12.40;99.90;;;;;;5000593;28;20059;-66
2022/08/09 01:17:20;;;;;;;6.00;4.93;;;12.40;99.90;;;;;;5056330;28;20028;-65
2022/08/09 01:20:01;;;;;;;7.57;4.97;;;12.30;99.90;;;;;;5074098;28;20420;-65
2022/08/09 01:22:51;;;;;;;5.43;5.03;;;12.30;99.90;;;;;;5056543;28;20029;-65
2022/08/09 01:25:26;;;;;;;6.63;4.97;;;12.30;99.90;;;;;;5074368;28;20040;-65
2022/08/09 01:27:53;;;;;;;5.72;5.10;;;12.30;99.90;;;;;;5074104;28;20462;-66
2022/08/09 01:30:21;;;;;;;5.50;5.03;;;12.30;99.90;;;;;;5074148;28;20373;-65
2022/08/09 01:32:49;;;;;;;5.70;5.10;;;12.30;99.90;;;;;;5074126;28;20017;-65
2022/08/09 01:35:32;;;;;;;5.30;4.90;;;12.30;99.90;;;;;;5073924;28;20112;-65
2022/08/09 01:38:01;;;;;;;5.68;5.18;;;12.30;99.90;;;;;;5073949;28;20095;-65
2022/08/09 01:40:28;;;;;;;9.52;5.70;;;12.30;99.90;;;;;;5074447;28;20052;-65
2022/08/09 01:42:55;;;;;;;5.15;4.75;;;12.20;99.90;;;;;;5074131;28;20036;-65
2022/08/09 01:45:22;;;;;;;7.00;4.93;;;12.20;99.90;;;;;;5073559;28;20048;-65
2022/08/09 01:47:48;;;;;;;6.20;4.82;;;12.20;99.90;;;;;;5055768;28;20482;-65
2022/08/09 01:50:16;;;;;;;9.52;5.88;;;12.20;99.90;;;;;;5055741;28;20070;-65
2022/08/09 01:52:43;;;;;;;5.20;4.70;;;12.20;99.90;;;;;;5073776;28;20540;-65
2022/08/09 01:55:09;;;;;;;6.75;5.00;;;12.20;99.90;;;;;;5056053;28;20138;-65
2022/08/09 01:57:39;;;;;;;5.60;5.10;;;12.20;99.90;;;;;;5055714;28;20032;-65
2022/08/09 02:00:08;;;;;;;5.32;4.90;;;12.20;99.90;;;;;;5074186;28;20025;-65
2022/08/09 02:02:42;;;;;;;6.18;5.32;;;12.10;99.90;;;;;;5073784;28;20473;-65
2022/08/09 02:05:10;;;;;;;5.55;4.90;;;12.20;99.90;;;;;;5073516;28;20060;-65
2022/08/09 02:07:41;;;;;;;7.20;5.90;;;12.20;99.90;;;;;;5056468;28;20036;-65
2022/08/09 02:10:12;;;;;;;6.13;5.63;;;12.20;99.90;;;;;;5059947;28;20462;-65
2022/08/09 02:12:38;;;;;;;7.18;5.10;;;12.20;99.90;;;;;;5077742;28;20028;-65
2022/08/09 02:15:07;;;;;;;12.13;6.10;;;12.20;99.90;;;;;;5078036;28;20368;-65
2022/08/09 02:17:34;;;;;;;6.97;5.75;;;12.20;99.90;;;;;;5077599;28;20033;-65
2022/08/09 02:20:00;;;;;;;5.53;4.72;;;12.20;99.90;;;;;;5059532;28;20035;-65
2022/08/09 02:22:37;;;;;;;6.45;4.75;;;12.20;99.90;;;;;;5077295;28;20029;-65
2022/08/09 02:25:11;;;;;;;8.45;5.20;;;12.20;99.90;;;;;;5077550;28;20028;-65
2022/08/09 02:27:38;;;;;;;6.13;5.63;;;12.20;99.90;;;;;;5077989;28;20025;-65
2022/08/09 02:30:07;;;;;;;5.50;5.00;;;12.20;99.90;;;;;;5059617;28;20078;-65
2022/08/09 02:32:35;;;;;;;5.75;4.63;;;12.20;99.90;;;;;;5059274;28;20373;-65
2022/08/09 02:35:06;;;;;;;5.47;4.95;;;12.10;99.90;;;;;;5076913;28;20102;-65
2022/08/09 02:37:35;;;;;;;11.82;6.32;;;12.10;99.90;;;;;;5076908;28;20397;-65
2022/08/09 02:40:10;;;;;;;6.55;5.05;;;12.10;99.90;;;;;;5059250;28;20075;-65
2022/08/09 02:42:43;;;;;;;6.88;5.68;;;12.10;99.90;;;;;;5077442;28;20071;-65
2022/08/09 02:45:27;;;;;;;7.70;5.65;;;12.10;99.90;;;;;;5076884;28;20179;-65
2022/08/09 02:47:57;;;;;;;5.38;4.88;;;12.10;99.90;;;;;;5077032;28;20036;-65
2022/08/09 02:50:29;;;;;;;9.23;5.28;;;12.00;99.90;;;;;;5059334;28;20055;-65
2022/08/09 02:53:01;;;;;;;11.57;5.57;;;12.00;99.90;;;;;;5059140;28;20119;-65
2022/08/09 02:55:29;;;;;;;6.60;5.63;;;12.00;99.90;;;;;;5077067;28;20365;-65
2022/08/09 02:57:57;;;;;;;5.35;4.95;;;12.00;99.90;;;;;;5076815;28;20032;-65
2022/08/09 03:00:24;;;;;;;9.32;5.82;;;12.00;99.90;;;;;;5076363;28;20081;-65
2022/08/09 03:02:53;;;;;;;6.00;5.50;;;12.00;99.90;;;;;;5076587;28;20048;-65
2022/08/09 03:05:20;;;;;;;5.35;4.85;;;12.00;99.90;;;;;;5058808;28;20020;-65
2022/08/09 03:07:48;;;;;;;11.70;5.10;;;12.00;99.90;;;;;;5077070;28;20461;-65
2022/08/09 03:10:15;;;;;;;7.03;5.68;;;12.00;99.90;;;;;;5058644;28;20035;-65
2022/08/09 03:12:43;;;;;;;11.98;6.82;;;12.00;99.90;;;;;;5076428;28;20051;-65
2022/08/09 03:15:12;;;;;;;5.77;5.27;;;12.00;99.90;;;;;;5076328;28;20036;-65
2022/08/09 03:17:38;;;;;;;6.13;5.53;;;12.00;99.90;;;;;;5076159;28;20028;-65
2022/08/09 03:20:07;;;;;;;7.95;5.13;;;12.00;99.90;;;;;;5057089;28;20516;-65
2022/08/09 03:22:39;;;;;;;6.20;5.60;;;12.00;99.90;;;;;;5058559;28;20028;-65
2022/08/09 03:25:10;;;;;;;6.30;5.63;;;12.00;99.90;;;;;;5076227;28;20115;-66
2022/08/09 03:27:36;;;;;;;6.38;5.10;;;12.00;99.90;;;;;;5058516;28;20028;-65
2022/08/09 03:30:03;;;;;;;7.50;5.28;;;12.00;99.90;;;;;;5076379;28;20028;-65
2022/08/09 03:32:30;;;;;;;6.05;5.55;;;12.00;99.90;;;;;;5076249;28;20086;-65
2022/08/09 03:34:57;;;;;;;6.00;4.65;;;12.00;99.90;;;;;;5076179;28;20024;-65
2022/08/09 03:37:23;;;;;;;5.47;4.97;;;12.00;99.90;;;;;;5076020;28;20025;-65
2022/08/09 03:39:48;;;;;;;5.43;4.93;;;12.00;99.90;;;;;;5057643;28;20105;-65
2022/08/09 03:42:14;;;;;;;5.78;5.28;;;12.00;99.90;;;;;;5075972;28;20462;-65
2022/08/09 03:44:40;;;;;;;5.28;4.70;;;11.90;99.90;;;;;;5076091;28;20086;-65
2022/08/09 03:47:05;;;;;;;13.13;6.38;;;12.00;99.90;;;;;;5076064;28;20169;-65
2022/08/09 03:49:33;;;;;;;6.25;5.57;;;12.00;99.90;;;;;;5075631;28;20059;-65
2022/08/09 03:52:00;;;;;;;6.45;4.90;;;11.90;99.90;;;;;;5075926;28;20081;-65
2022/08/09 03:54:30;;;;;;;6.20;5.60;;;11.90;99.90;;;;;;5057967;28;20054;-65
2022/08/09 03:57:01;;;;;;;7.50;5.40;;;11.90;99.90;;;;;;5058344;28;20047;-65
2022/08/09 03:59:27;;;;;;;6.20;5.57;;;11.90;99.90;;;;;;5057993;28;20033;-65
2022/08/09 04:01:55;;;;;;;5.93;5.35;;;11.90;99.90;;;;;;5057882;28;20035;-65
2022/08/09 04:04:21;;;;;;;6.18;5.10;;;12.00;99.90;;;;;;5075920;28;20028;-65
2022/08/09 04:06:47;;;;;;;8.90;5.97;;;12.00;99.90;;;;;;5075651;28;20031;-65
2022/08/09 04:09:12;;;;;;;9.98;5.03;;;12.00;99.90;;;;;;5075537;28;20068;-65
2022/08/09 04:11:58;;;;;;;5.70;5.20;;;12.00;99.90;;;;;;5058173;28;20027;-65
2022/08/09 04:14:24;;;;;;;6.38;5.32;;;12.00;99.90;;;;;;5075684;28;20056;-65
2022/08/09 04:16:49;;;;;;;5.22;4.72;;;12.00;99.90;;;;;;5075657;28;20060;-65
2022/08/09 04:19:15;;;;;;;8.02;5.60;;;12.00;99.90;;;;;;5075068;28;20474;-66
2022/08/09 04:21:41;;;;;;;5.47;4.97;;;12.00;99.90;;;;;;5075141;28;20033;-65
2022/08/09 04:24:07;;;;;;;5.47;4.40;;;12.10;99.90;;;;;;5075225;28;20029;-65
2022/08/09 04:26:33;;;;;;;7.63;4.65;;;12.10;99.90;;;;;;5075423;28;20052;-65
2022/08/09 04:28:58;;;;;;;7.10;5.50;;;12.10;99.90;;;;;;5074928;28;20067;-65
2022/08/09 04:31:25;;;;;;;6.35;4.90;;;12.20;99.90;;;;;;5074551;28;20025;-65
2022/08/09 04:33:51;;;;;;;9.70;5.28;;;12.20;99.90;;;;;;5057106;28;20036;-65
2022/08/09 04:36:16;;;;;;;4.80;4.32;;;12.20;99.90;;;;;;5074948;28;20032;-65
2022/08/09 04:38:42;;;;;;;6.28;5.03;;;12.40;99.90;;;;;;5074618;28;20052;-67
2022/08/09 04:41:08;;;;;;;5.90;4.80;;;12.40;99.90;;;;;;5074599;28;20031;-74
2022/08/09 04:43:34;;;;;;;8.50;5.25;;;12.50;99.90;;;;;;5056952;28;20032;-76
2022/08/09 04:46:00;;;;;;;7.60;4.55;;;12.70;99.90;;;;;;5074738;28;20033;-66
2022/08/09 04:48:26;;;;;;;6.00;4.82;;;12.70;99.90;;;;;;5074546;28;20167;-66
2022/08/09 04:50:52;;;;;;;5.53;4.07;;;12.80;99.90;;;;;;5074977;28;20074;-66
2022/08/09 04:53:17;;;;;;;4.60;4.18;;;12.80;99.90;;;;;;5074557;28;20467;-66
2022/08/09 04:55:43;;;;;;;6.30;4.25;;;12.90;99.90;;;;;;5074930;28;20024;-66
2022/08/09 04:58:08;;;;;;;4.80;4.38;;;12.90;99.90;;;;;;5056563;28;20123;-66
2022/08/09 05:00:34;;;;;;;5.55;4.25;;;13.00;99.90;;;;;;5074035;28;20043;-68
2022/08/09 05:03:04;;;;;;;5.57;3.72;;;13.10;99.90;;;;;;5056111;28;20033;-69
2022/08/09 05:05:30;;;;;;;5.03;3.85;;;13.20;99.90;;;;;;5074379;28;20024;-69
2022/08/09 05:07:57;;;;;;;7.30;3.70;;;13.30;99.90;;;;;;5074212;28;20029;-71
2022/08/09 05:10:23;;;;;;;4.32;3.58;;;13.30;99.90;;;;;;5074205;28;20025;-69
2022/08/09 05:12:49;;;;;;;3.70;3.38;;;13.40;99.90;;;;;;5056175;28;20119;-71
2022/08/09 05:15:15;;;;;;;3.50;3.20;;;13.50;99.90;;;;;;5056202;28;20029;-68
2022/08/09 05:17:40;;;;;;;4.18;3.25;;;13.60;99.90;;;;;;5073994;28;20036;-68
2022/08/09 05:20:08;;;;;;;4.28;3.30;;;13.70;99.90;;;;;;5073715;28;20060;-71
2022/08/09 05:22:34;;;;;;;5.97;3.60;;;13.80;99.90;;;;;;5056081;28;20381;-69
2022/08/09 05:24:59;;;;;;;3.70;3.40;;;13.90;99.90;;;;;;5056250;28;20031;-67
2022/08/09 05:27:25;;;;;;;10.38;4.35;;;14.10;99.90;;;;;;5074230;28;20366;-67
2022/08/09 05:29:50;;;;;;;3.65;3.28;;;14.10;99.90;;;;;;5055915;28;20452;-67
2022/08/09 05:32:16;;;;;;;3.60;2.50;;;14.30;99.90;;;;;;5073895;28;20110;-67
2022/08/09 05:34:42;;;;;;;3.15;2.80;;;14.40;99.90;;;;;;5074284;28;20032;-67
2022/08/09 05:37:07;;;;;;;9.30;2.97;;;14.60;99.90;;;;;;5073784;28;20028;-67
2022/08/09 05:39:34;;;;;;;4.82;2.83;;;14.70;99.90;;;;;;5073632;28;20128;-67
2022/08/09 05:42:00;;;;;;;4.40;2.70;;;14.80;99.90;;;;;;5055342;28;20024;-68
2022/08/09 05:44:26;;;;;;;3.53;3.00;;;14.90;99.90;;;;;;5073813;28;20099;-67
2022/08/09 05:46:52;;;;;;;4.25;2.90;;;15.10;99.90;;;;;;5055683;28;20025;-68
2022/08/09 05:49:18;;;;;;;5.78;2.38;;;15.20;99.90;;;;;;5073398;28;20060;-68
2022/08/09 05:51:44;;;;;;;3.92;2.20;;;15.40;99.90;;;;;;5073346;28;20417;-67
2022/08/09 05:54:09;;;;;;;8.73;2.20;;;15.60;99.90;;;;;;5073442;28;20429;-67
2022/08/09 05:56:35;;;;;;;4.53;2.55;;;15.80;99.90;;;;;;5074004;28;20028;-67
2022/08/09 05:59:01;;;;;;;2.70;2.13;;;16.00;99.90;;;;;;5073918;28;20082;-67
2022/08/09 06:01:28;;;;;;;5.13;2.22;;;16.20;99.90;;;;;;5073657;28;20036;-67
2022/08/09 06:03:55;;;;;;;4.32;2.03;;;16.40;99.90;;;;;;5073665;28;20105;-68
2022/08/09 06:06:21;;;;;;;3.40;1.83;;;16.70;99.90;;;;;;5073306;28;20490;-68
2022/08/09 06:08:47;;;;;;;2.78;1.67;;;17.10;99.90;;;;;;5073216;28;20058;-68
2022/08/09 06:11:12;;;;;;;3.22;1.50;;;17.40;99.90;;;;;;5073556;28;20021;-68
2022/08/09 06:13:39;;;;;;;1.70;1.60;;;17.60;99.90;;;;;;5073772;28;20053;-68
2022/08/09 06:16:05;;;;;;;5.10;1.40;;;18.00;99.90;;;;;;5073495;28;20380;-67
2022/08/09 06:18:31;;;;;;;2.65;1.50;;;18.20;99.90;;;;;;5073376;28;20111;-68
2022/08/09 06:20:57;;;;;;;4.65;1.85;;;18.40;99.90;;;;;;5073559;28;20359;-67
2022/08/09 06:23:26;;;;;;;1.60;1.50;;;18.60;99.90;;;;;;5055358;28;20031;-60
2022/08/09 06:25:52;;;;;;;5.78;1.33;;;18.90;99.90;;;;;;5073280;28;20040;-60
2022/08/09 06:28:18;;;;;;;2.78;1.30;;;19.20;99.90;;;;;;5055280;28;20028;-60
2022/08/09 06:30:43;;;;;;;3.42;1.55;;;19.10;99.90;;;;;;5073791;28;20150;-61
2022/08/09 06:33:09;;;;;;;3.70;1.20;;;19.10;99.90;;;;;;5073245;28;20020;-60
2022/08/09 06:35:35;;;;;;;1.23;1.13;;;19.00;99.90;;;;;;5055147;28;20043;-60
2022/08/09 06:38:00;;;;;;;3.42;1.20;;;19.00;99.90;;;;;;5073127;28;20233;-60
2022/08/09 06:40:26;;;;;;;2.00;1.10;;;19.20;99.90;;;;;;5073407;28;20050;-61
2022/08/09 06:42:52;;;;;;;6.05;1.42;;;19.60;99.90;;;;;;5073134;28;20429;-61
2022/08/09 06:45:18;;;;;;;2.67;1.50;;;20.00;99.90;;;;;;5072963;28;20417;-61
2022/08/09 06:47:44;;;;;;;1.70;1.38;;;20.40;99.90;;;;;;5073124;28;20035;-61
2022/08/09 06:50:10;;;;;;;1.20;1.10;;;20.60;99.90;;;;;;5073400;28;20375;-61
2022/08/09 06:52:38;;;;;;;1.10;0.80;;;20.60;99.90;;;;;;5073162;28;20470;-61
2022/08/09 06:55:05;;;;;;;4.97;1.38;;;20.60;99.70;;;;;;5057905;28;20383;-61
2022/08/09 06:57:31;;;;;;;3.95;1.45;;;20.60;99.70;;;;;;5076746;28;20032;-61
2022/08/09 06:59:56;;;;;;;1.38;0.93;;;20.80;99.20;;;;;;5076396;28;20020;-61
2022/08/09 07:02:22;;;;;;;1.25;1.20;;;21.00;99.00;;;;;;5076751;28;20074;-61
2022/08/09 07:04:48;;;;;;;1.05;0.95;;;21.40;98.80;;;;;;5076630;28;20102;-61
2022/08/09 07:07:14;;;;;;;3.88;1.40;;;21.70;97.40;;;;;;5058436;28;20070;-61
2022/08/09 07:09:40;;;;;;;3.42;1.02;;;21.80;97.00;;;;;;5076563;28;20032;-61
2022/08/09 07:12:06;;;;;;;2.50;1.40;;;21.80;96.20;;;;;;5077012;28;20021;-61
2022/08/09 07:14:32;;;;;;;3.42;1.15;;;21.90;95.80;;;;;;5076548;28;20032;-61
2022/08/09 07:16:57;;;;;;;2.47;1.20;;;22.00;95.60;;;;;;5058464;28;20029;-61
2022/08/09 07:19:23;;;;;;;2.42;1.13;;;22.10;94.90;;;;;;5076338;28;20037;-61
2022/08/09 07:21:49;;;;;;;2.20;1.30;;;22.10;94.80;;;;;;5076340;28;20074;-61
2022/08/09 07:24:15;;;;;;;4.07;1.33;;;22.20;94.80;;;;;;5076462;28;20048;-61
2022/08/09 07:26:40;;;;;;;3.35;1.35;;;22.20;93.80;;;;;;5076533;28;20063;-61
2022/08/09 07:29:06;;;;;;;1.83;1.00;;;22.00;94.30;;;;;;5076452;28;20117;-62
2022/08/09 07:31:32;;;;;;;6.30;2.15;;;22.00;93.90;;;;;;5076329;28;20454;-61
2022/08/09 07:33:57;;;;;;;4.07;1.33;;;22.00;94.30;;;;;;5075987;28;20021;-61
2022/08/09 07:36:23;;;;;;;7.40;1.33;;;22.20;93.50;;;;;;5075820;28;20086;-61
2022/08/09 07:38:49;;;;;;;3.60;1.17;;;22.30;93.50;;;;;;5075727;28;20048;-61
2022/08/09 07:41:14;;;;;;;5.07;2.20;;;22.70;93.20;;;;;;5076150;28;20020;-61
2022/08/09 07:43:40;;;;;;;1.42;1.00;;;23.00;92.10;;;;;;5057998;28;20119;-76
2022/08/09 07:46:07;;;;;;;3.08;1.20;;;23.20;91.40;;;;;;5057904;28;20408;-61
2022/08/09 07:48:33;;;;;;;5.85;1.02;;;23.40;90.70;;;;;;5075797;28;20078;-62
2022/08/09 07:51:00;;;;;;;2.70;1.02;;;23.60;91.30;;;;;;5075871;28;20035;-61
2022/08/09 07:53:26;;;;;;;3.92;1.48;;;23.70;90.50;;;;;;5076103;28;20461;-62
2022/08/09 07:55:51;;;;;;;5.47;1.10;;;23.90;89.20;;;;;;5075749;28;20082;-62
2022/08/09 07:58:17;;;;;;;4.47;1.20;;;23.90;89.20;;;;;;5075880;28;20035;-61
2022/08/09 08:00:43;;;;;;;1.60;1.00;;;24.00;86.60;;;;;;5075377;28;20029;-61
2022/08/09 08:03:09;;;;;;;6.00;1.40;;;24.10;86.60;;;;;;5075619;28;20107;-61
2022/08/09 08:05:35;;;;;;;3.97;1.25;;;24.20;86.80;;;;;;5074816;28;20028;-61
2022/08/09 08:08:02;;;;;;;1.83;1.25;;;24.20;84.80;;;;;;5057488;28;20477;-61
2022/08/09 08:10:28;;;;;;;1.83;1.40;;;24.00;85.80;;;;;;5075164;28;20448;-61
2022/08/09 08:12:53;;;;;;;2.22;1.20;;;24.10;84.40;;;;;;5075103;28;20102;-61
2022/08/09 08:15:19;;;;;;;6.15;1.17;;;24.20;84.40;;;;;;5075371;28;20458;-61
2022/08/09 08:17:47;;;;;;;5.90;1.35;;;24.40;83.10;;;;;;5074912;28;20481;-61
2022/08/09 08:20:13;;;;;;;4.43;1.08;;;24.60;81.80;;;;;;5057424;28;20476;-61
2022/08/09 08:22:39;;;;;;;6.63;1.75;;;24.60;82.60;;;;;;5075222;28;20099;-61
2022/08/09 08:25:05;;;;;;;4.43;1.33;;;24.60;80.50;;;;;;5075172;28;20107;-61
2022/08/09 08:27:31;;;;;;;4.93;1.60;;;24.40;79.90;;;;;;5057038;28;20553;-61
2022/08/09 08:29:57;;;;;;;2.90;1.23;;;24.70;80.20;;;;;;5075208;28;20020;-61
2022/08/09 08:32:23;;;;;;;4.75;1.13;;;24.90;79.30;;;;;;5075034;28;20029;-61
2022/08/09 08:34:48;;;;;;;3.63;1.50;;;25.20;77.70;;;;;;5056787;28;20599;-61
2022/08/09 08:37:14;;;;;;;6.40;1.60;;;25.40;75.60;;;;;;5074988;28;20361;-61
2022/08/09 08:39:40;;;;;;;3.03;1.10;;;25.70;75.40;;;;;;5074242;28;20418;-61
2022/08/09 08:42:06;;;;;;;5.82;1.10;;;26.20;74.80;;;;;;5074785;28;20477;-61
2022/08/09 08:44:35;;;;;;;5.20;0.95;;;26.80;72.60;;;;;;5056780;28;20035;-67
2022/08/09 08:47:02;;;;;;;3.22;1.02;;;27.00;69.20;;;;;;5075070;28;20181;-68
2022/08/09 08:49:32;;;;;;;4.75;1.42;;;27.00;68.20;;;;;;5074295;28;20554;-67
2022/08/09 08:51:57;;;;;;;2.13;1.00;;;26.50;67.90;;;;;;5057225;28;20025;-68
2022/08/09 08:54:23;;;;;;;2.38;1.15;;;26.30;68.10;;;;;;5074282;28;20025;-68
2022/08/09 08:56:49;;;;;;;5.88;1.20;;;26.30;68.60;;;;;;5074263;28;20480;-67
2022/08/09 08:59:15;;;;;;;1.98;1.00;;;26.50;69.70;;;;;;5074174;28;20032;-68
2022/08/09 09:01:45;;;;;;;1.10;0.85;;;26.90;68.50;;;;;;5056536;28;20462;-67
2022/08/09 09:04:12;;;;;;;3.90;1.10;;;26.80;67.40;;;;;;5056474;28;20029;-67
2022/08/09 09:06:40;;;;;;;4.30;1.20;;;26.80;66.20;;;;;;5056434;28;20024;-67
2022/08/09 09:09:07;;;;;;;2.50;1.27;;;26.50;66.40;;;;;;5074606;28;20386;-67
2022/08/09 09:11:34;;;;;;;1.83;1.23;;;26.30;66.70;;;;;;5074214;28;20309;-67
2022/08/09 09:14:07;;;;;;;5.97;1.42;;;26.60;66.40;;;;;;5056605;28;20044;-67
2022/08/09 09:16:33;;;;;;;9.23;1.10;;;27.00;66.80;;;;;;5056424;28;20027;-67
2022/08/09 09:19:00;;;;;;;4.07;1.08;;;27.50;62.80;;;;;;5073747;28;20037;-67
2022/08/09 09:21:26;;;;;;;2.83;1.13;;;27.70;62.60;;;;;;5056357;28;20052;-68
2022/08/09 09:23:51;;;;;;;5.40;1.05;;;27.70;63.00;;;;;;5074287;28;20462;-68
2022/08/09 09:26:22;;;;;;;5.25;1.60;;;28.50;62.30;;;;;;5056403;28;20066;-68
2022/08/09 09:28:48;;;;;;;4.68;1.17;;;29.40;58.80;;;;;;5074043;28;20033;-68
2022/08/09 09:31:15;;;;;;;2.92;0.90;;;29.90;57.60;;;;;;5056064;28;20024;-68
2022/08/09 09:33:42;;;;;;;4.70;1.25;;;30.20;56.70;;;;;;5073879;28;20036;-68
2022/08/09 09:36:10;;;;;;;4.07;1.30;;;30.70;54.80;;;;;;5073901;28;20051;-68
2022/08/09 09:38:55;;;;;;;2.33;0.90;;;30.60;53.10;;;;;;5073633;28;20036;-68
2022/08/09 09:41:27;;;;;;;2.45;0.80;;;30.20;53.40;;;;;;5055791;28;20044;-68
2022/08/09 09:43:54;;;;;;;2.45;1.00;;;30.40;53.10;;;;;;5074007;28;20081;-68
2022/08/09 09:46:30;;;;;;;3.47;1.00;;;30.30;52.60;;;;;;5056095;28;20056;-68
2022/08/09 09:48:57;;;;;;;3.42;1.00;;;30.30;53.70;;;;;;5073902;28;20385;-68
2022/08/09 09:51:25;;;;;;;1.00;0.90;;;30.40;51.80;;;;;;5073687;28;20032;-68
2022/08/09 09:54:09;;;;;;;2.28;1.08;;;30.40;51.30;;;;;;5073687;28;20105;-66
2022/08/09 09:56:39;;;;;;;5.47;1.35;;;30.60;52.10;;;;;;5073401;28;20024;-67
2022/08/09 09:59:06;;;;;;;2.53;1.13;;;31.20;52.10;;;;;;5055672;28;20035;-67
2022/08/09 10:01:32;;;;;;;4.80;1.13;;;31.80;49.60;;;;;;5073597;28;20036;-67
2022/08/09 10:03:59;;;;;;;4.32;0.90;;;32.30;49.00;;;;;;5073827;28;20024;-67
2022/08/09 10:06:36;;;;;;;1.30;0.70;;;32.50;48.00;;;;;;5073263;28;20028;-68
2022/08/09 10:09:03;;;;;;;6.40;1.30;;;31.80;48.20;;;;;;5073820;28;20035;-67
2022/08/09 10:11:31;;;;;;;1.83;1.10;;;31.40;48.40;;;;;;5073548;28;20121;-68
2022/08/09 10:13:57;;;;;;;3.30;1.38;;;31.80;48.20;;;;;;5073744;28;20416;-69
2022/08/09 10:16:41;;;;;;;4.80;0.85;;;31.90;46.90;;;;;;5073471;28;20082;-69
2022/08/09 10:19:08;;;;;;;3.63;1.00;;;32.70;47.50;;;;;;5073644;28;20086;-69
2022/08/09 10:21:35;;;;;;;5.80;1.25;;;32.50;46.30;;;;;;5055415;28;20382;-68
2022/08/09 10:24:03;;;;;;;2.28;0.75;;;32.50;45.50;;;;;;5073695;28;20024;-68
2022/08/09 10:26:29;;;;;;;7.47;1.10;;;32.70;45.80;;;;;;5073427;28;20021;-67
2022/08/09 10:28:56;;;;;;;5.25;1.33;;;32.90;45.50;;;;;;5074418;28;20036;-68
2022/08/09 10:31:23;;;;;;;1.98;1.30;;;32.80;44.90;;;;;;5077075;28;20420;-68
2022/08/09 10:33:50;;;;;;;2.92;1.73;;;32.10;45.10;;;;;;5059524;28;20035;-69
2022/08/09 10:36:16;;;;;;;2.78;1.00;;;31.30;46.50;;;;;;5077287;28;20108;-70
2022/08/09 10:38:45;;;;;;;3.58;1.40;;;31.60;46.50;;;;;;5076983;28;20056;-69
2022/08/09 10:41:14;;;;;;;5.45;1.25;;;31.80;45.50;;;;;;5076836;28;20171;-68
2022/08/09 10:43:45;;;;;;;3.88;0.90;;;31.10;45.90;;;;;;5059048;28;20449;-68
2022/08/09 10:46:32;;;;;;;2.47;1.00;;;31.70;46.90;;;;;;5059110;28;20032;-68
2022/08/09 10:49:19;;;;;;;8.18;1.02;;;32.30;45.00;;;;;;5077283;28;20031;-70
2022/08/09 10:52:04;;;;;;;4.13;1.20;;;32.70;44.00;;;;;;5077105;28;20031;-67
2022/08/09 10:54:30;;;;;;;3.85;1.42;;;33.10;43.60;;;;;;5059113;28;20031;-68
2022/08/09 10:57:10;;;;;;;7.50;1.35;;;31.90;43.90;;;;;;5058927;28;20032;-67
2022/08/09 10:59:37;;;;;;;2.20;1.17;;;30.70;45.00;;;;;;5058740;28;20545;-66
2022/08/09 11:02:37;;;;;;;3.60;1.10;;;29.90;46.90;;;;;;5076729;28;20046;-68
2022/08/09 11:05:16;;;;;;;2.15;1.13;;;30.60;45.80;;;;;;5070749;28;20082;-70
2022/08/09 11:07:42;;;;;;;5.93;1.02;;;30.60;46.10;;;;;;5076735;28;20127;-69
2022/08/09 11:10:08;;;;;;;4.72;0.90;;;30.30;46.00;;;;;;5076314;28;20025;-67
2022/08/09 11:12:33;;;;;;;4.88;1.45;;;30.70;45.00;;;;;;5076545;28;20104;-68
2022/08/09 11:15:22;;;;;;;1.10;0.77;;;30.90;44.90;;;;;;5076582;28;20023;-68
2022/08/09 11:17:48;;;;;;;1.58;0.85;;;30.90;43.70;;;;;;5076508;28;20489;-68
2022/08/09 11:20:15;;;;;;;1.75;1.00;;;31.50;43.10;;;;;;5058395;28;20383;-69
2022/08/09 11:22:43;;;;;;;2.47;0.85;;;32.10;42.30;;;;;;5076093;28;20390;-68
2022/08/09 11:25:32;;;;;;;2.25;1.10;;;33.20;42.20;;;;;;5076630;28;20029;-67
2022/08/09 11:27:58;;;;;;;5.00;1.52;;;34.10;40.20;;;;;;5058703;28;20071;-68
2022/08/09 11:30:26;;;;;;;3.75;1.10;;;34.20;38.70;;;;;;5058724;28;20078;-68
2022/08/09 11:33:16;;;;;;;2.80;0.82;;;33.90;38.80;;;;;;5058249;28;20064;-68
2022/08/09 11:35:46;;;;;;;0.82;0.82;;;33.90;38.60;;;;;;5058134;28;20032;-69
2022/08/09 11:38:20;;;;;;;2.75;0.70;;;33.00;39.50;;;;;;5076315;28;20090;-68
2022/08/09 11:40:46;;;;;;;2.25;1.10;;;31.60;40.00;;;;;;5057103;28;20032;-69
2022/08/09 11:43:16;;;;;;;1.33;0.85;;;31.60;40.50;;;;;;5075950;28;20449;-69
2022/08/09 11:45:54;;;;;;;2.42;1.08;;;32.50;39.80;;;;;;5075964;28;20117;-70
2022/08/09 11:48:26;;;;;;;1.23;0.90;;;33.00;38.60;;;;;;5076173;28;20103;-68
2022/08/09 11:51:04;;;;;;;2.65;1.00;;;32.80;38.60;;;;;;5058243;28;20431;-69
2022/08/09 11:53:39;;;;;;;2.83;0.75;;;32.90;38.40;;;;;;5076208;28;20028;-68
2022/08/09 11:56:14;;;;;;;2.13;0.77;;;33.10;38.20;;;;;;5075812;28;20032;-67
2022/08/09 11:58:43;;;;;;;1.50;0.70;;;33.40;38.10;;;;;;5075862;28;20075;-67
2022/08/09 12:01:12;;;;;;;2.97;0.85;;;34.00;38.40;;;;;;5075656;28;20024;-68
2022/08/09 12:03:39;;;;;;;2.55;0.60;;;33.90;38.00;;;;;;5057361;28;20081;-69
2022/08/09 12:06:25;;;;;;;3.03;0.60;;;34.20;37.40;;;;;;5075536;28;20505;-69
2022/08/09 12:08:53;;;;;;;3.53;0.70;;;34.50;36.80;;;;;;5057893;28;20531;-69
2022/08/09 12:11:22;;;;;;;2.95;0.80;;;33.70;37.70;;;;;;5075181;28;20035;-70
2022/08/09 12:13:59;;;;;;;2.25;0.70;;;33.50;37.30;;;;;;5075543;28;20089;-69
2022/08/09 12:16:34;;;;;;;1.50;0.70;;;33.80;37.30;;;;;;5057538;28;20133;-69
2022/08/09 12:19:01;;;;;;;2.20;0.85;;;33.90;37.30;;;;;;5057405;28;20497;-69
2022/08/09 12:21:43;;;;;;;4.47;0.70;;;32.90;37.30;;;;;;5075235;28;20016;-69
2022/08/09 12:24:10;;;;;;;6.35;0.73;;;32.50;38.90;;;;;;5057905;28;20028;-69
2022/08/09 12:26:40;;;;;;;3.10;1.02;;;32.30;37.80;;;;;;5075300;28;20165;-69
2022/08/09 12:29:06;;;;;;;1.85;0.90;;;31.90;37.70;;;;;;5075260;28;20039;-69
2022/08/09 12:31:33;;;;;;;2.88;0.80;;;31.60;38.00;;;;;;5075104;28;20039;-69
2022/08/09 12:33:59;;;;;;;2.03;0.75;;;31.90;38.10;;;;;;5075054;28;20162;-69
2022/08/09 12:36:25;;;;;;;2.25;0.65;;;32.60;38.30;;;;;;5057125;28;20123;-69
2022/08/09 12:38:53;;;;;;;1.50;0.70;;;33.40;37.50;;;;;;5074589;28;20138;-69
2022/08/09 12:41:32;;;;;;;3.97;0.57;;;33.50;36.60;;;;;;5057150;28;20029;-69
2022/08/09 12:43:59;;;;;;;4.57;1.85;;;33.40;36.10;;;;;;5074836;28;20040;-69
2022/08/09 12:46:26;;;;;;;0.52;0.50;;;33.60;36.50;;;;;;5074708;28;20082;-68
2022/08/09 12:48:56;;;;;;;0.77;0.70;;;34.20;36.10;;;;;;5074575;28;20047;-69
2022/08/09 12:51:23;;;;;;;1.67;0.80;;;33.90;36.30;;;;;;5056647;28;20039;-68
2022/08/09 12:53:59;;;;;;;3.30;0.65;;;34.40;36.50;;;;;;5074552;28;20024;-69